Time;durP1;ratioP1;P1;durP2;ratioP2;P2;SDS_P1;SDS_P2;PMS_P1;PMS_P2;Temp;Humidity;BMP_temperature;BMP_pressure;BME280_temperature;BME280_humidity;BME280_pressure;Samples;Min_cycle;Max_cycle;Signal;HPM_P1;HPM_P2
2022/05/27 00:02:01;;;;;;;4.17;2.37;;;;;;;15.70;63.28;99051.02;1748845;81;20963;-47
2022/05/27 00:04:27;;;;;;;10.08;2.58;;;;;;;15.67;63.67;99047.77;1748989;81;21517;-45
2022/05/27 00:06:53;;;;;;;3.60;2.35;;;;;;;15.68;63.20;99048.97;1748783;81;20948;-54
2022/05/27 00:09:19;;;;;;;4.37;2.70;;;;;;;15.68;63.33;99049.44;1748778;81;20979;-52
2022/05/27 00:11:44;;;;;;;6.90;2.67;;;;;;;15.67;63.22;99045.95;1748811;82;20986;-51
2022/05/27 00:14:10;;;;;;;5.20;3.05;;;;;;;15.69;63.19;99044.50;1748898;81;21026;-49
2022/05/27 00:16:36;;;;;;;3.42;2.65;;;;;;;15.67;63.51;99041.97;1748816;81;21486;-46
2022/05/27 00:19:02;;;;;;;8.53;2.62;;;;;;;15.65;63.20;99042.58;1748778;81;21470;-43
2022/05/27 00:21:28;;;;;;;4.35;2.50;;;;;;;15.64;63.25;99036.91;1748784;81;20987;-49
2022/05/27 00:23:54;;;;;;;4.42;2.55;;;;;;;15.64;63.30;99033.42;1748702;82;21019;-56
2022/05/27 00:26:20;;;;;;;5.35;2.58;;;;;;;15.57;63.76;99027.77;1748743;81;20953;-51
2022/05/27 00:28:47;;;;;;;4.15;2.20;;;;;;;15.58;63.65;99019.35;1748718;81;21038;-55
2022/05/27 00:31:13;;;;;;;3.70;2.50;;;;;;;15.58;63.61;99013.56;1748948;82;20972;-46
2022/05/27 00:33:39;;;;;;;11.63;2.55;;;;;;;15.56;63.78;99015.49;1748783;81;20983;-54
2022/05/27 00:36:10;;;;;;;8.08;2.75;;;;;;;15.59;63.80;99011.74;1748867;81;21518;-54
2022/05/27 00:38:38;;;;;;;6.12;2.37;;;;;;;15.62;63.84;99004.88;1748888;82;20969;-55
2022/05/27 00:41:04;;;;;;;4.22;2.15;;;;;;;15.60;63.82;99001.02;1748183;81;20987;-48
2022/05/27 00:43:30;;;;;;;6.50;2.50;;;;;;;15.60;63.73;98993.07;1748881;82;20964;-57
2022/05/27 00:46:04;;;;;;;6.08;2.10;;;;;;;15.62;64.06;98995.60;1748901;81;21030;-49
2022/05/27 00:48:34;;;;;;;4.15;2.42;;;;;;;15.63;64.40;98987.53;1748081;81;20976;-51
2022/05/27 00:51:00;;;;;;;8.00;2.08;;;;;;;15.65;64.52;98990.06;1748931;82;20979;-55
2022/05/27 00:53:36;;;;;;;6.80;2.55;;;;;;;15.66;64.35;98987.30;1748938;82;20960;-56
2022/05/27 00:56:05;;;;;;;3.40;2.62;;;;;;;15.64;64.33;98986.55;1748650;81;21000;-47
2022/05/27 00:58:36;;;;;;;3.35;2.87;;;;;;;15.66;64.24;98984.64;1748871;82;20976;-46
2022/05/27 01:01:01;;;;;;;11.33;3.50;;;;;;;15.69;64.34;98988.84;1749031;81;20950;-47
2022/05/27 01:03:29;;;;;;;5.03;3.20;;;;;;;15.69;64.28;98980.39;1748825;81;21032;-49
2022/05/27 01:05:55;;;;;;;3.55;2.95;;;;;;;15.69;64.47;98979.07;1748951;82;20953;-51
2022/05/27 01:08:24;;;;;;;3.90;3.08;;;;;;;15.65;64.83;98981.62;1748909;81;20984;-48
2022/05/27 01:11:18;;;;;;;4.00;2.92;;;;;;;15.63;65.08;98971.63;1748872;81;20999;-54
2022/05/27 01:14:14;;;;;;;7.30;3.10;;;;;;;15.57;65.32;98962.83;1734585;81;20984;-47
2022/05/27 01:17:23;;;;;;;9.15;3.77;;;;;;;15.53;65.41;98956.11;1748804;81;21011;-53
2022/05/27 01:23:32;;;;;;;4.15;3.10;;;;;;;15.40;66.51;98950.95;1748917;82;20999;-56
2022/05/27 01:26:12;;;;;;;9.28;3.30;;;;;;;15.39;65.97;98947.10;1748850;81;21485;-48
2022/05/27 01:28:56;;;;;;;4.12;3.10;;;;;;;15.31;67.16;98939.29;1747592;81;21027;-48
2022/05/27 01:31:42;;;;;;;7.22;3.00;;;;;;;15.31;66.53;98935.31;1748843;81;21014;-51
2022/05/27 01:34:23;;;;;;;3.80;2.80;;;;;;;15.28;66.91;98938.23;1745077;82;20960;-47
2022/05/27 01:37:26;;;;;;;7.30;2.37;;;;;;;15.24;67.17;98939.91;1748797;81;21007;-50
2022/05/27 01:40:24;;;;;;;4.53;3.00;;;;;;;15.21;67.00;98937.50;1748897;81;20988;-51
2022/05/27 01:43:18;;;;;;;4.97;3.00;;;;;;;15.20;66.97;98938.48;1748824;81;20956;-56
2022/05/27 01:46:01;;;;;;;3.90;2.75;;;;;;;15.18;67.17;98938.60;1748834;81;20988;-53
2022/05/27 01:48:51;;;;;;;6.00;3.12;;;;;;;15.17;67.45;98939.55;1748553;81;21105;-45
2022/05/27 01:51:27;;;;;;;4.85;2.60;;;;;;;15.14;67.56;98939.33;1748813;82;20980;-47
2022/05/27 01:54:01;;;;;;;5.23;2.90;;;;;;;15.10;68.00;98935.73;1749144;81;20972;-54
2022/05/27 01:56:35;;;;;;;8.28;2.67;;;;;;;15.15;67.51;98928.23;1748963;81;21275;-54
2022/05/27 01:59:14;;;;;;;5.10;3.02;;;;;;;15.19;67.51;98932.35;1748780;81;20971;-47
2022/05/27 02:01:48;;;;;;;5.40;3.02;;;;;;;15.21;67.53;98929.55;1748906;81;20949;-51
2022/05/27 02:04:22;;;;;;;3.95;2.80;;;;;;;15.21;67.34;98926.45;1748892;81;21047;-53
2022/05/27 02:06:57;;;;;;;5.20;2.77;;;;;;;15.27;67.25;98921.13;1748897;81;21027;-57
2022/05/27 02:09:37;;;;;;;6.80;3.33;;;;;;;15.25;67.21;98928.36;1748098;81;20976;-55
2022/05/27 02:12:11;;;;;;;5.87;3.20;;;;;;;15.27;66.96;98919.31;1748794;81;20944;-55
2022/05/27 02:14:47;;;;;;;7.42;3.20;;;;;;;15.30;66.77;98923.05;1748522;81;20956;-47
2022/05/27 02:17:18;;;;;;;5.53;2.90;;;;;;;15.31;66.61;98916.77;1748807;82;21015;-53
2022/05/27 02:19:58;;;;;;;4.20;2.90;;;;;;;15.32;66.61;98918.47;1748389;81;21517;-48
2022/05/27 02:22:31;;;;;;;7.62;3.12;;;;;;;15.32;66.50;98913.17;1748777;82;20960;-50
2022/05/27 02:25:14;;;;;;;6.42;3.00;;;;;;;15.27;66.59;98911.37;1748736;81;20960;-49
2022/05/27 02:27:45;;;;;;;5.75;3.50;;;;;;;15.29;66.32;98904.13;1748607;81;21024;-52
2022/05/27 02:30:15;;;;;;;5.42;3.00;;;;;;;15.29;66.51;98909.92;1748785;81;20964;-52
2022/05/27 02:32:46;;;;;;;11.33;3.77;;;;;;;15.25;66.67;98904.03;1748798;81;20976;-48
2022/05/27 02:35:22;;;;;;;7.75;3.33;;;;;;;15.26;66.38;98907.52;1738237;82;21450;-52
2022/05/27 02:37:52;;;;;;;4.60;3.42;;;;;;;15.18;67.01;98901.52;1738494;82;20956;-47
2022/05/27 02:44:08;;;;;;;6.10;3.72;;;;;;;15.21;67.10;98886.72;1800268;79;23133;-50
2022/05/27 02:47:06;;;;;;;5.58;2.90;;;;;;;15.09;66.95;98887.70;1761751;80;21614;-52
2022/05/27 02:49:50;;;;;;;3.92;2.60;;;;;;;15.10;67.24;98893.36;1761817;80;20961;-53
2022/05/27 02:52:27;;;;;;;5.33;3.02;;;;;;;15.08;67.35;98885.54;1761819;81;20971;-43
2022/05/27 02:55:24;;;;;;;3.22;2.90;;;;;;;15.11;67.30;98873.84;1761951;80;21029;-50
2022/05/27 02:57:53;;;;;;;4.30;2.55;;;;;;;15.10;67.48;98866.39;1761914;80;21033;-54
2022/05/27 03:00:30;;;;;;;4.95;2.70;;;;;;;15.13;67.33;98870.12;1761915;81;20994;-43
2022/05/27 03:02:59;;;;;;;4.08;2.55;;;;;;;15.10;67.71;98862.42;1760958;81;21034;-44
2022/05/27 03:05:29;;;;;;;6.97;3.02;;;;;;;15.14;67.59;98861.20;1761332;80;21059;-56
2022/05/27 03:08:12;;;;;;;6.65;2.80;;;;;;;15.17;67.52;98852.14;1760064;80;20996;-47
2022/05/27 03:11:02;;;;;;;6.55;2.92;;;;;;;15.21;67.63;98854.06;1761567;81;20972;-41
2022/05/27 03:13:50;;;;;;;6.72;3.27;;;;;;;15.23;67.85;98841.56;1761512;80;20981;-54
2022/05/27 03:16:37;;;;;;;4.47;2.83;;;;;;;15.17;68.07;98837.58;1761800;81;21417;-53
2022/05/27 03:19:47;;;;;;;4.03;2.85;;;;;;;15.15;67.88;98840.38;1761820;80;21475;-54
2022/05/27 03:22:27;;;;;;;6.35;2.90;;;;;;;15.15;67.94;98831.57;1761745;81;20967;-45
2022/05/27 03:25:29;;;;;;;5.12;2.52;;;;;;;15.16;68.04;98826.64;1760130;81;20987;-46
2022/05/27 03:28:01;;;;;;;5.05;3.22;;;;;;;15.18;67.85;98822.55;1749896;81;21440;-49
2022/05/27 03:30:34;;;;;;;6.22;3.05;;;;;;;15.17;67.71;98824.34;1761794;81;20987;-46
2022/05/27 03:33:17;;;;;;;6.53;2.92;;;;;;;15.17;67.60;98820.36;1761776;81;21481;-51
2022/05/27 03:36:21;;;;;;;5.50;2.83;;;;;;;15.16;67.77;98820.02;1761804;81;20968;-43
2022/05/27 03:39:08;;;;;;;7.92;3.47;;;;;;;15.13;67.77;98813.64;1698856;84;21117;-53
2022/05/27 03:41:45;;;;;;;6.22;3.62;;;;;;;15.07;68.47;98817.64;1698848;82;21089;-43
2022/05/27 03:44:22;;;;;;;6.00;3.50;;;;;;;15.10;68.05;98817.89;1712678;84;21029;-55
2022/05/27 03:46:51;;;;;;;4.63;3.03;;;;;;;15.13;67.80;98812.32;1714185;84;21158;-45
2022/05/27 03:49:17;;;;;;;5.00;3.20;;;;;;;15.13;68.06;98809.21;1714125;84;21310;-48
2022/05/27 03:52:06;;;;;;;4.62;3.33;;;;;;;15.13;68.15;98812.32;1714094;84;21451;-48
2022/05/27 03:54:32;;;;;;;4.00;2.95;;;;;;;15.16;67.90;98808.94;1713228;84;20989;-44
2022/05/27 03:56:59;;;;;;;9.43;3.47;;;;;;;15.19;68.06;98807.86;1713539;84;21075;-48
2022/05/27 03:59:25;;;;;;;6.80;3.60;;;;;;;15.20;68.14;98812.17;1713478;83;20993;-47
2022/05/27 04:01:54;;;;;;;5.47;3.20;;;;;;;15.23;68.15;98811.94;1713467;84;20977;-49
2022/05/27 04:04:26;;;;;;;4.08;3.42;;;;;;;15.22;68.39;98812.05;1713553;84;20978;-53
2022/05/27 04:06:52;;;;;;;5.00;3.08;;;;;;;15.29;67.84;98806.12;1713567;83;20992;-50
2022/05/27 04:09:21;;;;;;;6.85;3.33;;;;;;;15.28;67.90;98800.48;1713739;84;21013;-57
2022/05/27 04:11:47;;;;;;;6.47;3.33;;;;;;;15.31;67.79;98794.91;1718596;81;20981;-52
2022/05/27 04:14:14;;;;;;;4.40;3.17;;;;;;;15.34;67.66;98794.66;1761550;81;21027;-46
2022/05/27 04:16:40;;;;;;;3.53;2.60;;;;;;;15.37;67.62;98789.58;1761828;81;21100;-44
2022/05/27 04:19:06;;;;;;;6.75;2.95;;;;;;;15.35;67.97;98784.44;1761518;81;20963;-49
2022/05/27 04:21:33;;;;;;;4.92;3.12;;;;;;;15.30;68.88;98790.59;1761360;81;20979;-50
2022/05/27 04:23:59;;;;;;;4.13;3.03;;;;;;;15.32;68.55;98787.33;1761679;81;21472;-50
2022/05/27 04:26:26;;;;;;;6.47;2.75;;;;;;;15.32;68.55;98787.33;1761317;81;21456;-57
2022/05/27 04:28:52;;;;;;;4.40;2.67;;;;;;;15.33;68.76;98798.30;1761385;80;20968;-57
2022/05/27 04:31:18;;;;;;;4.87;2.77;;;;;;;15.28;69.26;98793.86;1761383;81;20988;-46
2022/05/27 04:33:44;;;;;;;6.00;2.70;;;;;;;15.31;70.00;98789.61;1761414;81;20983;-51
2022/05/27 04:36:11;;;;;;;10.00;3.20;;;;;;;15.33;69.85;98785.52;1761469;81;21511;-49
2022/05/27 04:38:38;;;;;;;5.28;2.80;;;;;;;15.32;70.68;98783.85;1761516;81;20960;-48
2022/05/27 04:41:04;;;;;;;6.20;2.72;;;;;;;15.31;70.63;98778.19;1761360;81;20959;-54
2022/05/27 04:43:30;;;;;;;5.83;2.53;;;;;;;15.29;70.92;98777.47;1750964;81;21501;-48
2022/05/27 04:45:56;;;;;;;3.60;2.35;;;;;;;15.28;70.82;98780.61;1748158;81;20979;-50
2022/05/27 04:48:22;;;;;;;5.35;2.98;;;;;;;15.32;70.74;98779.38;1748176;82;21022;-46
2022/05/27 04:50:48;;;;;;;5.50;2.90;;;;;;;15.27;72.04;98776.77;1748143;81;21024;-49
2022/05/27 04:53:14;;;;;;;6.12;2.70;;;;;;;15.29;72.18;98778.80;1748251;81;21003;-58
2022/05/27 04:55:41;;;;;;;7.40;2.72;;;;;;;15.29;72.07;98775.66;1747979;82;20992;-46
2022/05/27 04:58:11;;;;;;;5.10;2.65;;;;;;;15.28;72.29;98777.97;1748249;81;21046;-50
2022/05/27 05:00:41;;;;;;;5.47;3.12;;;;;;;15.26;72.06;98782.55;1748015;81;20972;-55
2022/05/27 05:03:08;;;;;;;7.78;3.10;;;;;;;15.21;73.16;98779.44;1747246;81;20984;-49
2022/05/27 05:05:35;;;;;;;7.20;3.02;;;;;;;15.19;73.71;98784.48;1748162;81;21445;-45
2022/05/27 05:08:15;;;;;;;5.30;2.87;;;;;;;15.21;73.07;98779.44;1748096;81;20992;-50
2022/05/27 05:10:41;;;;;;;8.48;2.80;;;;;;;15.19;73.53;98777.87;1747981;81;21583;-51
2022/05/27 05:13:07;;;;;;;6.75;2.72;;;;;;;15.12;73.96;98788.98;1748058;81;21579;-48
2022/05/27 05:15:34;;;;;;;5.22;3.10;;;;;;;15.07;74.65;98787.67;1748036;81;21022;-44
2022/05/27 05:18:00;;;;;;;4.80;2.50;;;;;;;15.06;74.79;98791.28;1748221;81;21430;-51
2022/05/27 05:20:30;;;;;;;4.60;2.70;;;;;;;15.03;75.23;98787.58;1747972;81;20999;-50
2022/05/27 05:22:56;;;;;;;3.83;3.15;;;;;;;14.97;75.45;98779.63;1747944;81;21762;-40
2022/05/27 05:25:23;;;;;;;5.72;3.17;;;;;;;14.91;77.30;98786.27;1747983;81;21006;-47
2022/05/27 05:27:50;;;;;;;4.30;2.87;;;;;;;14.90;77.98;98783.77;1748272;81;20999;-48
2022/05/27 05:30:21;;;;;;;5.50;2.90;;;;;;;14.82;78.56;98787.02;1748089;81;20995;-47
2022/05/27 05:32:47;;;;;;;5.85;2.90;;;;;;;14.84;77.55;98781.11;1747988;81;20965;-49
2022/05/27 05:35:15;;;;;;;7.97;2.90;;;;;;;14.73;81.19;98771.88;1748044;81;20980;-54
2022/05/27 05:37:40;;;;;;;7.78;3.17;;;;;;;14.67;80.71;98763.95;1748302;82;21023;-50
2022/05/27 05:40:09;;;;;;;3.98;3.10;;;;;;;14.72;80.62;98765.75;1747966;81;20964;-53
2022/05/27 05:42:36;;;;;;;4.20;2.80;;;;;;;14.75;80.12;98766.84;1747856;81;20988;-55
2022/05/27 05:45:03;;;;;;;2.93;2.63;;;;;;;14.81;81.00;98764.63;1748304;81;21022;-51
2022/05/27 05:47:28;;;;;;;6.12;3.02;;;;;;;14.86;80.25;98759.35;1748058;82;21027;-50
2022/05/27 05:49:54;;;;;;;4.90;2.70;;;;;;;14.89;80.57;98761.73;1748006;81;20976;-54
2022/05/27 05:52:20;;;;;;;11.78;3.17;;;;;;;14.91;79.36;98753.17;1748055;81;21461;-49
2022/05/27 05:54:45;;;;;;;3.45;2.50;;;;;;;14.93;79.52;98749.91;1748111;81;21135;-48
2022/05/27 05:57:11;;;;;;;8.88;2.80;;;;;;;14.94;80.34;98743.66;1747994;81;21501;-56
2022/05/27 05:59:38;;;;;;;6.28;2.65;;;;;;;14.96;80.41;98735.60;1748086;81;21011;-47
2022/05/27 06:02:06;;;;;;;5.57;2.87;;;;;;;15.00;79.80;98733.54;1748191;81;21042;-54
2022/05/27 06:04:32;;;;;;;5.17;2.65;;;;;;;15.08;79.58;98732.41;1747955;81;20984;-50
2022/05/27 06:06:59;;;;;;;6.45;2.80;;;;;;;15.06;79.09;98734.34;1748288;81;21523;-51
2022/05/27 06:09:28;;;;;;;7.47;2.52;;;;;;;15.04;79.76;98725.69;1748113;81;21120;-52
2022/05/27 06:11:56;;;;;;;6.40;2.20;;;;;;;15.04;79.80;98719.07;1747966;81;20996;-59
2022/05/27 06:14:23;;;;;;;4.67;2.90;;;;;;;15.02;80.09;98721.02;1747119;81;20995;-53
2022/05/27 06:16:49;;;;;;;3.70;2.50;;;;;;;15.01;81.30;98724.61;1747916;81;21026;-52
2022/05/27 06:19:15;;;;;;;7.08;2.60;;;;;;;15.11;80.36;98725.55;1747972;81;20983;-46
2022/05/27 06:21:41;;;;;;;5.20;2.47;;;;;;;15.12;80.00;98726.74;1747935;81;20991;-49
2022/05/27 06:24:07;;;;;;;7.40;2.40;;;;;;;15.18;79.60;98720.09;1748052;81;20995;-55
2022/05/27 06:26:33;;;;;;;4.60;2.25;;;;;;;15.19;79.74;98723.11;1747983;81;20987;-55
2022/05/27 06:34:27;;;;;;;5.70;2.42;;;;;;;15.20;79.53;98732.72;1747955;81;20992;-50
2022/05/27 06:37:14;;;;;;;4.67;2.47;;;;;;;15.21;79.18;98730.44;1748222;81;21043;-54
2022/05/27 06:39:41;;;;;;;4.47;2.33;;;;;;;15.20;79.04;98722.13;1747982;81;21417;-55
2022/05/27 06:42:09;;;;;;;3.35;2.05;;;;;;;15.20;78.57;98726.59;1748033;81;20991;-53
2022/05/27 06:44:37;;;;;;;4.25;2.25;;;;;;;15.15;78.84;98719.02;1747999;81;21357;-51
2022/05/27 06:47:04;;;;;;;3.47;1.75;;;;;;;15.14;79.55;98717.35;1748192;81;21004;-47
2022/05/27 06:49:30;;;;;;;4.33;2.08;;;;;;;15.15;78.30;98722.98;1748065;81;21034;-52
2022/05/27 06:51:55;;;;;;;4.87;2.00;;;;;;;15.14;78.72;98718.18;1748008;81;20996;-44
2022/05/27 06:54:22;;;;;;;4.03;1.92;;;;;;;15.20;78.53;98715.50;1747924;81;21497;-54
2022/05/27 06:56:50;;;;;;;3.00;2.07;;;;;;;15.23;79.15;98707.80;1748212;81;21042;-51
2022/05/27 06:59:17;;;;;;;6.47;2.20;;;;;;;15.23;79.21;98713.10;1747961;81;21143;-49
2022/05/27 07:01:44;;;;;;;2.87;2.02;;;;;;;15.28;79.46;98712.20;1748071;82;20992;-49
2022/05/27 07:04:10;;;;;;;4.85;2.08;;;;;;;15.30;78.67;98716.91;1748053;82;20991;-56
2022/05/27 07:06:43;;;;;;;4.97;2.05;;;;;;;15.26;79.36;98710.17;1748083;81;20991;-47
2022/05/27 07:09:11;;;;;;;3.80;2.20;;;;;;;15.29;79.53;98706.78;1748019;81;20980;-48
2022/05/27 07:11:40;;;;;;;5.47;1.98;;;;;;;15.30;79.63;98699.20;1747165;81;20988;-55
2022/05/27 07:14:07;;;;;;;3.77;2.50;;;;;;;15.35;79.07;98704.09;1747982;82;20964;-56
2022/05/27 07:16:33;;;;;;;3.55;2.10;;;;;;;15.35;79.38;98699.66;1747939;81;21038;-54
2022/05/27 07:18:59;;;;;;;8.83;2.25;;;;;;;15.29;80.02;98697.52;1747971;81;20989;-47
2022/05/27 07:21:25;;;;;;;3.45;2.00;;;;;;;15.32;79.79;98694.61;1747926;81;20996;-53
2022/05/27 07:23:54;;;;;;;9.33;2.10;;;;;;;15.25;80.90;98694.77;1747996;81;21488;-52
2022/05/27 07:26:23;;;;;;;3.58;1.90;;;;;;;15.24;80.98;98696.22;1747939;81;21500;-52
2022/05/27 07:28:49;;;;;;;12.63;2.83;;;;;;;15.27;80.22;98690.18;1747995;81;20991;-56
2022/05/27 07:31:17;;;;;;;6.87;2.65;;;;;;;15.21;80.97;98688.06;1748172;81;21862;-47
2022/05/27 07:33:44;;;;;;;5.65;2.70;;;;;;;15.29;80.22;98697.52;1748094;81;20994;-55
2022/05/27 07:36:11;;;;;;;;;;;;;;;15.27;80.49;98702.10;1750760;81;21445;-48
2022/05/27 07:38:37;;;;;;;3.95;2.20;;;;;;;15.21;80.90;98696.01;1748225;81;20431;-53
2022/05/27 07:41:03;;;;;;;5.50;2.17;;;;;;;15.25;80.53;98686.83;1748063;81;21063;-51
2022/05/27 07:43:29;;;;;;;6.15;2.72;;;;;;;15.10;81.08;98700.05;1753746;81;21027;-51
2022/05/27 07:45:56;;;;;;;5.40;2.60;;;;;;;15.19;80.74;98697.95;1761401;81;21042;-49
2022/05/27 07:48:22;;;;;;;5.22;2.80;;;;;;;15.23;80.37;98690.09;1761592;81;21464;-49
2022/05/27 07:50:48;;;;;;;7.35;3.10;;;;;;;15.16;81.88;98683.14;1761367;80;21030;-51
2022/05/27 07:53:15;;;;;;;6.25;2.87;;;;;;;15.15;81.91;98697.83;1761400;81;21026;-47
2022/05/27 07:55:42;;;;;;;4.28;2.70;;;;;;;15.07;82.67;98712.20;1761529;81;21050;-48
2022/05/27 07:58:07;;;;;;;5.65;2.70;;;;;;;15.01;82.40;98708.27;1761382;81;20995;-55
2022/05/27 08:00:35;;;;;;;3.65;2.30;;;;;;;14.86;82.77;98711.70;1761382;80;20980;-47
2022/05/27 08:03:02;;;;;;;3.75;2.42;;;;;;;14.74;84.71;98710.05;1761449;81;20963;-54
2022/05/27 08:05:30;;;;;;;2.67;2.42;;;;;;;14.67;84.86;98724.75;1761379;81;20983;-47
2022/05/27 08:07:58;;;;;;;5.72;2.87;;;;;;;14.53;86.53;98715.24;1761377;81;21465;-51
2022/05/27 08:10:29;;;;;;;7.33;2.45;;;;;;;14.41;87.12;98714.44;1761353;81;21042;-44
2022/05/27 08:12:55;;;;;;;4.00;3.02;;;;;;;14.34;88.17;98709.28;1761465;80;21488;-47
2022/05/27 08:15:21;;;;;;;3.50;3.20;;;;;;;14.32;87.87;98707.25;1761478;81;21033;-46
2022/05/27 08:17:47;;;;;;;4.67;2.87;;;;;;;14.24;89.18;98715.77;1761477;81;21107;-50
2022/05/27 08:20:18;;;;;;;4.40;2.95;;;;;;;14.31;88.98;98718.77;1761583;81;20956;-50
2022/05/27 08:22:48;;;;;;;4.80;3.12;;;;;;;14.20;91.23;98723.10;1761448;81;20999;-45
2022/05/27 08:25:16;;;;;;;4.25;3.50;;;;;;;14.25;91.10;98721.43;1761457;81;20995;-44
2022/05/27 08:27:42;;;;;;;;;;;;;;;14.28;89.99;98725.63;1764083;81;21492;-55
2022/05/27 08:30:10;;;;;;;2.80;2.60;;;;;;;14.20;91.61;98736.33;1761370;81;20105;-58
2022/05/27 08:32:37;;;;;;;5.70;3.27;;;;;;;14.18;90.47;98739.58;1760105;81;21428;-52
2022/05/27 08:38:01;;;;;;;3.93;2.60;;;;;;;14.25;92.10;98732.01;1746215;81;21087;-49
2022/05/27 08:40:41;;;;;;;3.95;2.90;;;;;;;14.29;90.84;98729.47;1757894;81;21698;-50
2022/05/27 08:43:33;;;;;;;2.65;2.45;;;;;;;14.25;91.58;98725.89;1751530;81;21523;-48
2022/05/27 08:46:31;;;;;;;4.55;2.50;;;;;;;14.29;91.03;98733.44;1742268;81;21524;-48
2022/05/27 08:49:02;;;;;;;3.45;2.92;;;;;;;14.24;91.37;98736.09;1740175;82;20960;-51
2022/05/27 08:51:39;;;;;;;2.70;2.50;;;;;;;14.26;90.61;98736.80;1743436;82;21170;-46
2022/05/27 08:54:19;;;;;;;2.87;2.30;;;;;;;14.29;90.04;98740.05;1743490;81;21019;-49
2022/05/27 08:59:41;;;;;;;3.62;2.45;;;;;;;14.26;90.48;98743.42;1740276;81;20987;-44
2022/05/27 09:02:18;;;;;;;4.70;2.60;;;;;;;14.27;91.91;98740.66;1743148;81;21574;-51
2022/05/27 09:05:16;;;;;;;4.60;2.60;;;;;;;14.30;91.53;98736.95;1743832;82;20948;-48
2022/05/27 09:08:05;;;;;;;3.30;2.08;;;;;;;14.37;90.47;98748.69;1741676;81;21500;-45
2022/05/27 09:10:36;;;;;;;2.65;2.08;;;;;;;14.33;91.08;98731.39;1717614;83;21003;-53
2022/05/27 09:13:19;;;;;;;4.10;2.62;;;;;;;14.36;90.67;98755.80;1731188;82;20972;-49
2022/05/27 09:15:56;;;;;;;2.87;2.47;;;;;;;14.32;90.07;98746.43;1741065;82;20996;-55
2022/05/27 09:18:42;;;;;;;3.52;2.50;;;;;;;14.34;90.12;98743.67;1717859;83;21540;-50
2022/05/27 09:21:51;;;;;;;3.42;2.58;;;;;;;14.32;91.47;98749.56;1717439;82;20997;-58
2022/05/27 09:24:38;;;;;;;4.33;2.75;;;;;;;14.30;90.69;98735.63;1717584;82;21011;-51
2022/05/27 09:27:43;;;;;;;4.03;3.08;;;;;;;14.27;89.67;98737.18;1717634;82;21011;-50
2022/05/27 09:30:13;;;;;;;3.77;2.65;;;;;;;14.31;89.48;98732.00;1720178;82;21456;-53
2022/05/27 09:33:01;;;;;;;4.55;3.15;;;;;;;14.26;90.86;98731.52;1743075;81;20984;-49
2022/05/27 09:35:35;;;;;;;3.62;3.10;;;;;;;14.28;90.68;98723.84;1747339;82;21015;-54
2022/05/27 09:38:06;;;;;;;5.58;3.75;;;;;;;14.30;91.14;98731.66;1747191;81;21016;-51
2022/05/27 09:40:39;;;;;;;8.48;3.30;;;;;;;14.35;89.87;98731.64;1747424;81;21481;-55
2022/05/27 09:43:19;;;;;;;5.47;3.60;;;;;;;14.37;91.76;98740.30;1747298;80;21486;-49
2022/05/27 09:45:55;;;;;;;4.87;3.95;;;;;;;14.45;91.80;98734.38;1755035;81;20998;-49
2022/05/27 09:48:20;;;;;;;3.92;3.50;;;;;;;14.61;90.62;98738.46;1754745;81;21022;-51
2022/05/27 09:50:49;;;;;;;10.25;3.65;;;;;;;14.56;91.11;98742.78;1754949;82;21038;-46
2022/05/27 09:53:23;;;;;;;10.95;3.67;;;;;;;14.65;89.73;98742.56;1755408;81;21002;-53
2022/05/27 09:56:04;;;;;;;5.70;3.58;;;;;;;14.71;90.17;98735.44;1754669;81;21054;-51
2022/05/27 09:58:35;;;;;;;5.22;3.50;;;;;;;14.84;89.96;98739.25;1755616;82;20990;-53
2022/05/27 10:01:27;;;;;;;4.22;3.05;;;;;;;14.94;88.55;98733.08;1756378;81;21550;-53
2022/05/27 10:04:00;;;;;;;6.70;2.80;;;;;;;14.95;87.79;98736.09;1754201;80;21559;-44
2022/05/27 10:06:29;;;;;;;2.70;2.37;;;;;;;14.82;84.67;98747.31;1753973;81;20993;-44
2022/05/27 10:08:59;;;;;;;4.10;2.17;;;;;;;14.73;83.65;98753.35;1758459;81;20998;-47
2022/05/27 10:11:31;;;;;;;4.53;2.33;;;;;;;14.61;82.66;98755.66;1755378;81;21007;-47
2022/05/27 10:14:18;;;;;;;6.58;2.50;;;;;;;14.64;83.20;98760.72;1759432;81;20975;-45
2022/05/27 10:17:01;;;;;;;2.47;2.13;;;;;;;14.49;83.59;98755.66;1759519;81;21921;-54
2022/05/27 10:19:27;;;;;;;3.12;2.72;;;;;;;14.41;83.26;98766.02;1754032;81;21021;-50
2022/05/27 10:22:01;;;;;;;2.47;1.95;;;;;;;14.27;82.35;98772.89;1760253;81;21693;-50
2022/05/27 10:24:38;;;;;;;2.22;1.92;;;;;;;14.33;81.88;98775.03;1758278;81;20960;-53
2022/05/27 10:27:15;;;;;;;3.37;3.00;;;;;;;14.20;82.35;98769.38;1755981;81;21814;-55
2022/05/27 10:29:59;;;;;;;5.53;1.95;;;;;;;13.78;82.84;98788.94;1744740;82;21123;-53
2022/05/27 10:32:35;;;;;;;3.27;1.98;;;;;;;13.68;82.97;98768.63;1754898;82;21011;-55
2022/05/27 10:35:06;;;;;;;1.70;1.45;;;;;;;13.68;83.29;98758.91;1755352;82;21057;-51
2022/05/27 10:38:20;;;;;;;5.35;1.62;;;;;;;13.70;82.43;98746.42;1760047;81;21002;-54
2022/05/27 10:41:14;;;;;;;4.22;1.20;;;;;;;13.68;82.00;98757.59;1754982;81;20972;-49
2022/05/27 10:44:00;;;;;;;3.30;1.50;;;;;;;13.57;81.21;98743.02;1728217;81;21118;-55
2022/05/27 10:46:33;;;;;;;2.87;1.35;;;;;;;13.57;81.95;98735.09;1742286;82;21007;-52
2022/05/27 10:49:22;;;;;;;6.22;1.40;;;;;;;13.61;81.28;98719.39;1740394;82;21007;-50
2022/05/27 10:51:59;;;;;;;1.75;1.20;;;;;;;13.68;81.73;98712.67;1737318;82;21018;-57
2022/05/27 10:54:59;;;;;;;;;;;;;;;13.69;80.40;98719.63;1710691;81;21263;-48
2022/05/27 11:03:51;;;;;;;1.35;0.95;;;;;;;13.39;78.10;98718.39;1747528;81;21505;-51
2022/05/27 11:06:38;;;;;;;2.12;1.15;;;;;;;13.28;78.55;98714.38;1745539;81;20921;-54
2022/05/27 11:09:17;;;;;;;1.50;1.30;;;;;;;13.24;78.26;98724.78;1719800;82;20956;-46
2022/05/27 11:12:00;;;;;;;6.10;1.20;;;;;;;13.10;78.17;98720.55;1740662;81;20921;-48
2022/05/27 11:15:12;;;;;;;4.28;1.12;;;;;;;12.93;78.20;98715.19;1740943;82;21453;-47
2022/05/27 11:18:06;;;;;;;3.12;1.10;;;;;;;13.02;78.48;98706.62;1743103;82;20996;-51
2022/05/27 11:20:42;;;;;;;1.85;1.30;;;;;;;12.96;78.38;98676.70;1743807;82;20993;-49
2022/05/27 11:23:49;;;;;;;1.57;1.32;;;;;;;12.89;77.97;98658.81;1745479;81;20960;-53
2022/05/27 11:26:45;;;;;;;2.52;1.30;;;;;;;12.92;78.21;98671.79;1747930;81;21047;-50
2022/05/27 11:29:23;;;;;;;4.92;1.10;;;;;;;12.83;79.59;98692.62;1747685;81;21048;-45
2022/05/27 11:32:32;;;;;;;2.30;1.22;;;;;;;12.89;79.52;98693.95;1747660;81;20944;-51
2022/05/27 11:35:49;;;;;;;1.32;1.22;;;;;;;12.80;79.86;98679.64;1747577;82;20965;-47
2022/05/27 11:38:52;;;;;;;4.15;1.20;;;;;;;12.80;81.88;98676.17;1735975;81;21643;-45
2022/05/27 11:42:01;;;;;;;1.02;0.90;;;;;;;12.90;80.50;98684.23;1741026;82;20916;-52
2022/05/27 11:44:50;;;;;;;1.95;1.32;;;;;;;12.98;79.74;98686.66;1744043;80;21477;-51
2022/05/27 11:47:46;;;;;;;3.70;1.30;;;;;;;13.08;79.75;98679.38;1755896;80;21504;-55
2022/05/27 11:50:52;;;;;;;2.33;1.35;;;;;;;12.95;79.84;98677.68;1749948;80;20963;-50
2022/05/27 11:53:48;;;;;;;1.45;1.32;;;;;;;13.01;80.01;98675.89;1756503;81;21251;-55
2022/05/27 11:56:41;;;;;;;2.30;1.20;;;;;;;12.88;79.50;98675.14;1709949;81;20944;-51
2022/05/27 11:59:24;;;;;;;2.20;1.02;;;;;;;12.91;78.24;98673.56;1760911;81;20995;-46
2022/05/27 12:02:26;;;;;;;2.08;1.52;;;;;;;12.97;78.58;98674.91;1760827;81;20948;-50
2022/05/27 12:05:05;;;;;;;1.62;1.22;;;;;;;12.97;78.56;98683.69;1733123;81;20969;-49
2022/05/27 12:07:51;;;;;;;1.47;0.90;;;;;;;12.95;78.96;98675.05;1755055;80;21017;-47
2022/05/27 12:10:44;;;;;;;1.82;1.22;;;;;;;13.01;78.50;98689.09;1753239;80;21059;-53
2022/05/27 12:13:35;;;;;;;1.32;1.05;;;;;;;12.94;78.74;98685.22;1757230;80;20975;-47
2022/05/27 12:16:31;;;;;;;1.75;1.00;;;;;;;12.87;78.13;98661.08;1760216;80;21452;-43
2022/05/27 12:19:13;;;;;;;2.87;0.98;;;;;;;12.96;77.80;98675.39;1749775;80;20949;-52
2022/05/27 12:21:44;;;;;;;2.62;0.90;;;;;;;13.00;78.11;98673.36;1730799;82;21426;-50
2022/05/27 12:24:23;;;;;;;2.90;0.90;;;;;;;13.08;78.01;98662.22;1739713;81;20979;-51
2022/05/27 12:26:53;;;;;;;1.82;1.22;;;;;;;13.13;77.90;98662.23;1760860;81;21829;-49
2022/05/27 12:29:22;;;;;;;1.98;1.02;;;;;;;13.13;78.12;98656.11;1760662;81;21018;-51
2022/05/27 12:31:50;;;;;;;1.72;1.00;;;;;;;13.16;77.88;98659.36;1757846;81;21382;-49
2022/05/27 12:34:34;;;;;;;3.77;1.00;;;;;;;13.28;77.40;98661.56;1754122;81;21489;-52
2022/05/27 12:37:10;;;;;;;2.12;1.27;;;;;;;13.36;77.53;98658.36;1753199;80;20965;-48